Time;durP1;ratioP1;P1;durP2;ratioP2;P2;SDS_P1;SDS_P2;PMS_P1;PMS_P2;Temp;Humidity;BMP_temperature;BMP_pressure;BME280_temperature;BME280_humidity;BME280_pressure;Samples;Min_cycle;Max_cycle;Signal;HPM_P1;HPM_P2
2024/01/05 00:00:14;;;;;;;3.55;2.55;;;5.90;99.90;;;;;;5070779;28;20213;-59
2024/01/05 00:02:42;;;;;;;5.25;2.70;;;5.90;99.90;;;;;;5070677;28;20202;-58
2024/01/05 00:05:08;;;;;;;6.90;3.13;;;5.90;99.90;;;;;;5069836;28;20224;-59
2024/01/05 00:07:35;;;;;;;4.60;3.10;;;5.90;99.90;;;;;;5069872;28;20594;-57
2024/01/05 00:10:02;;;;;;;6.82;2.85;;;5.80;99.90;;;;;;5069662;28;20216;-60
2024/01/05 00:12:29;;;;;;;4.32;3.42;;;5.80;99.90;;;;;;5063891;28;20210;-57
2024/01/05 00:14:55;;;;;;;5.55;3.33;;;5.80;99.90;;;;;;5070226;28;20202;-59
2024/01/05 00:17:22;;;;;;;7.60;2.92;;;5.80;99.90;;;;;;5063704;28;20229;-58
2024/01/05 00:19:50;;;;;;;4.80;3.22;;;5.70;99.90;;;;;;5069949;28;20205;-59
2024/01/05 00:22:17;;;;;;;6.72;4.18;;;5.70;99.90;;;;;;5070175;28;20689;-56
2024/01/05 00:24:44;;;;;;;6.30;2.90;;;5.70;99.90;;;;;;5070227;28;20207;-59
2024/01/05 00:27:11;;;;;;;7.88;3.10;;;5.60;99.90;;;;;;5070197;28;20700;-58
2024/01/05 00:29:38;;;;;;;3.95;2.90;;;5.60;99.90;;;;;;5070184;28;20198;-58
2024/01/05 00:32:06;;;;;;;5.03;2.47;;;5.60;99.90;;;;;;5068369;28;20208;-58
2024/01/05 00:34:33;;;;;;;3.88;2.97;;;5.50;99.90;;;;;;5065419;28;20625;-57
2024/01/05 00:37:01;;;;;;;10.20;3.50;;;5.50;99.90;;;;;;5066487;28;20229;-57
2024/01/05 00:39:28;;;;;;;5.25;2.70;;;5.40;99.90;;;;;;5056362;28;20210;-58
2024/01/05 00:41:55;;;;;;;4.35;2.63;;;5.40;99.90;;;;;;5067390;28;20232;-59
2024/01/05 00:44:21;;;;;;;8.88;2.50;;;5.40;99.90;;;;;;5067258;28;20213;-55
2024/01/05 00:46:48;;;;;;;3.60;2.40;;;5.30;99.90;;;;;;5058936;28;20628;-58
2024/01/05 00:49:16;;;;;;;2.58;1.98;;;5.30;99.90;;;;;;5063775;28;20293;-57
2024/01/05 00:51:43;;;;;;;5.32;3.00;;;5.20;99.90;;;;;;5063931;28;20210;-60
2024/01/05 00:54:11;;;;;;;6.97;3.95;;;5.20;99.90;;;;;;5069747;28;20205;-58
2024/01/05 00:56:38;;;;;;;4.25;2.60;;;5.10;99.90;;;;;;5070175;28;20225;-55
2024/01/05 00:59:06;;;;;;;4.97;2.90;;;5.10;99.90;;;;;;5070321;28;20208;-58
2024/01/05 01:01:33;;;;;;;3.00;2.33;;;5.10;99.90;;;;;;5074047;28;20902;-58
2024/01/05 01:04:00;;;;;;;2.88;2.60;;;5.10;99.90;;;;;;5072708;28;20198;-58
2024/01/05 01:06:26;;;;;;;3.78;3.30;;;5.00;99.90;;;;;;5073604;28;20317;-57
2024/01/05 01:08:53;;;;;;;6.90;2.70;;;5.00;99.90;;;;;;5072904;28;20202;-58
2024/01/05 01:11:22;;;;;;;4.82;2.80;;;5.00;99.90;;;;;;5073973;28;20202;-58
2024/01/05 01:13:49;;;;;;;4.00;2.45;;;5.00;99.90;;;;;;5073471;28;20680;-59
2024/01/05 01:16:16;;;;;;;3.58;3.08;;;4.90;99.90;;;;;;5073476;28;20593;-57
2024/01/05 01:18:43;;;;;;;10.77;3.50;;;4.90;99.90;;;;;;5073205;28;20212;-57
2024/01/05 01:21:09;;;;;;;2.97;2.50;;;4.90;99.90;;;;;;5072659;28;20206;-59
2024/01/05 01:23:36;;;;;;;6.15;2.83;;;4.90;99.90;;;;;;5073208;28;20233;-58
2024/01/05 01:26:03;;;;;;;6.15;3.42;;;4.90;99.90;;;;;;5072953;28;20229;-58
2024/01/05 01:28:32;;;;;;;5.80;3.25;;;4.90;99.90;;;;;;5073116;28;20763;-59
2024/01/05 01:30:58;;;;;;;3.95;2.80;;;4.90;99.90;;;;;;5072803;28;20206;-56
2024/01/05 01:33:25;;;;;;;3.40;3.10;;;4.90;99.90;;;;;;5072538;28;20656;-57
2024/01/05 01:35:53;;;;;;;4.55;3.22;;;4.90;99.90;;;;;;5072588;28;20225;-57
2024/01/05 01:38:20;;;;;;;7.38;3.08;;;4.90;99.90;;;;;;5073177;28;20582;-56
2024/01/05 01:40:47;;;;;;;5.50;3.95;;;4.90;99.90;;;;;;5081400;28;20197;-54
2024/01/05 01:43:21;;;;;;;7.30;2.70;;;5.00;99.90;;;;;;5072960;28;20576;-57
2024/01/05 01:45:49;;;;;;;2.75;2.53;;;4.90;99.90;;;;;;5072628;28;20229;-59
2024/01/05 01:48:18;;;;;;;5.70;3.20;;;4.90;99.90;;;;;;5072906;28;20217;-57
2024/01/05 01:50:46;;;;;;;5.90;3.25;;;4.90;99.90;;;;;;5072385;28;20292;-54
2024/01/05 01:53:14;;;;;;;6.07;3.47;;;4.90;99.90;;;;;;5072726;28;20251;-51
2024/01/05 01:55:42;;;;;;;3.58;3.28;;;4.90;99.90;;;;;;5072637;28;20355;-54
2024/01/05 01:58:10;;;;;;;9.45;3.55;;;4.90;99.90;;;;;;5072755;28;20206;-55
2024/01/05 02:00:38;;;;;;;4.60;3.50;;;4.90;99.90;;;;;;5072606;28;20647;-54
2024/01/05 02:03:06;;;;;;;5.18;3.50;;;4.90;99.90;;;;;;5072027;28;20205;-58
2024/01/05 02:05:33;;;;;;;5.45;3.25;;;4.80;99.90;;;;;;5072373;28;20230;-56
2024/01/05 02:08:00;;;;;;;3.55;2.90;;;4.80;99.90;;;;;;5072665;28;20324;-54
2024/01/05 02:10:27;;;;;;;5.65;4.00;;;4.80;99.90;;;;;;5072174;28;20201;-56
2024/01/05 02:12:54;;;;;;;3.28;2.97;;;4.80;99.90;;;;;;5072240;28;20301;-55
2024/01/05 02:15:21;;;;;;;5.10;3.03;;;4.80;99.90;;;;;;5070600;28;20205;-54
2024/01/05 02:17:48;;;;;;;9.00;3.15;;;4.80;99.90;;;;;;5071713;28;20732;-57
2024/01/05 02:20:16;;;;;;;7.13;3.05;;;4.80;99.90;;;;;;5064492;28;20208;-57
2024/01/05 02:22:47;;;;;;;9.68;3.40;;;4.80;99.90;;;;;;5073040;28;20208;-57
2024/01/05 02:25:15;;;;;;;3.60;3.30;;;4.80;99.90;;;;;;5072778;28;20297;-56
2024/01/05 02:27:42;;;;;;;3.90;2.50;;;4.80;99.90;;;;;;5072261;28;20700;-56
2024/01/05 02:30:10;;;;;;;5.38;2.60;;;4.80;99.90;;;;;;5072593;28;20210;-56
2024/01/05 02:32:36;;;;;;;2.50;2.28;;;4.80;99.90;;;;;;5072776;28;20237;-56
2024/01/05 02:35:04;;;;;;;4.25;2.25;;;4.80;99.90;;;;;;5072558;28;20600;-55
2024/01/05 02:37:30;;;;;;;5.07;2.95;;;4.80;99.90;;;;;;5072171;28;20222;-57
2024/01/05 02:39:57;;;;;;;3.35;2.67;;;4.80;99.90;;;;;;5072108;28;20212;-57
2024/01/05 02:42:25;;;;;;;4.03;2.83;;;4.90;99.90;;;;;;5072315;28;20209;-56
2024/01/05 02:44:52;;;;;;;5.50;3.38;;;4.90;99.90;;;;;;5072455;28;20691;-54
2024/01/05 02:47:19;;;;;;;4.35;2.78;;;5.00;99.90;;;;;;5071138;28;20226;-59
2024/01/05 02:49:46;;;;;;;6.80;3.50;;;5.00;99.90;;;;;;5072197;28;20229;-59
2024/01/05 02:52:13;;;;;;;4.38;3.33;;;5.10;99.90;;;;;;5072383;28;20605;-58
2024/01/05 02:54:40;;;;;;;3.72;3.20;;;5.10;99.90;;;;;;5072657;28;20202;-59
2024/01/05 02:57:06;;;;;;;4.57;4.20;;;5.10;99.90;;;;;;5072481;28;20267;-58
2024/01/05 02:59:35;;;;;;;4.72;2.80;;;5.20;99.90;;;;;;5072715;28;20211;-60
2024/01/05 03:02:02;;;;;;;4.35;2.60;;;5.20;99.90;;;;;;5072590;28;20216;-57
2024/01/05 03:04:28;;;;;;;5.22;3.00;;;5.20;99.90;;;;;;5072725;28;20205;-60
2024/01/05 03:06:55;;;;;;;5.47;3.38;;;5.30;99.90;;;;;;5072364;28;20614;-60
2024/01/05 03:09:22;;;;;;;4.18;2.50;;;5.30;99.90;;;;;;5072397;28;20216;-59
2024/01/05 03:11:49;;;;;;;4.90;2.55;;;5.40;99.90;;;;;;5072655;28;20604;-59
2024/01/05 03:14:16;;;;;;;7.03;3.38;;;5.40;99.90;;;;;;5072362;28;20211;-58
2024/01/05 03:16:44;;;;;;;8.35;3.08;;;5.40;99.90;;;;;;5072409;28;20236;-58
2024/01/05 03:19:11;;;;;;;5.38;3.10;;;5.40;99.90;;;;;;5072150;28;20229;-59
2024/01/05 03:21:38;;;;;;;9.25;4.00;;;5.50;99.90;;;;;;5071599;28;20212;-60
2024/01/05 03:24:05;;;;;;;6.85;3.00;;;5.50;99.90;;;;;;5072106;28;20205;-58
2024/01/05 03:26:33;;;;;;;3.33;3.00;;;5.50;99.90;;;;;;5072176;28;20230;-58
2024/01/05 03:28:59;;;;;;;6.63;2.95;;;5.50;99.90;;;;;;5072125;28;20228;-57
2024/01/05 03:31:26;;;;;;;3.75;2.50;;;5.50;99.90;;;;;;5072373;28;20216;-57
2024/01/05 03:33:54;;;;;;;16.98;2.85;;;5.50;99.90;;;;;;5072151;28;20338;-58
2024/01/05 03:36:21;;;;;;;4.80;2.55;;;5.50;99.90;;;;;;5071911;28;20687;-58
2024/01/05 03:38:48;;;;;;;5.82;2.75;;;5.50;99.90;;;;;;5071736;28;20216;-57
2024/01/05 03:41:15;;;;;;;4.85;2.65;;;5.40;99.90;;;;;;5072156;28;20699;-57
2024/01/05 03:43:42;;;;;;;4.45;2.90;;;5.40;99.90;;;;;;5072159;28;20205;-59
2024/01/05 03:46:11;;;;;;;7.80;3.15;;;5.40;99.90;;;;;;5071676;28;20691;-59
2024/01/05 03:48:37;;;;;;;5.20;2.88;;;5.40;99.90;;;;;;5071759;28;20209;-56
2024/01/05 03:51:06;;;;;;;3.92;2.78;;;5.40;99.90;;;;;;5071498;28;20220;-57
2024/01/05 03:53:33;;;;;;;4.88;4.57;;;5.40;99.90;;;;;;5071782;28;20221;-59
2024/01/05 03:56:00;;;;;;;4.50;2.63;;;5.40;99.90;;;;;;5071682;28;20745;-59
2024/01/05 03:58:28;;;;;;;6.25;2.03;;;5.30;99.90;;;;;;5071791;28;20313;-57
2024/01/05 04:00:55;;;;;;;10.25;3.92;;;5.30;99.90;;;;;;5071531;28;20217;-56
2024/01/05 04:03:21;;;;;;;4.00;2.00;;;5.30;99.90;;;;;;5071637;28;20209;-56
2024/01/05 04:05:48;;;;;;;2.92;2.65;;;5.30;99.90;;;;;;5071098;28;20210;-58
2024/01/05 04:08:16;;;;;;;10.80;2.60;;;5.20;99.90;;;;;;5071680;28;20209;-61
2024/01/05 04:10:43;;;;;;;2.80;2.17;;;5.20;99.90;;;;;;5071364;28;20228;-59
2024/01/05 04:13:10;;;;;;;10.40;2.50;;;5.20;99.90;;;;;;5071381;28;20206;-58
2024/01/05 04:15:37;;;;;;;5.63;2.80;;;5.20;99.90;;;;;;5071300;28;20210;-56
2024/01/05 04:18:05;;;;;;;3.95;3.10;;;5.10;99.90;;;;;;5071295;28;20208;-58
2024/01/05 04:20:32;;;;;;;4.00;2.33;;;5.10;99.90;;;;;;5071366;28;20209;-58
2024/01/05 04:23:00;;;;;;;6.75;2.67;;;5.10;99.90;;;;;;5070461;28;20591;-58
2024/01/05 04:25:30;;;;;;;2.53;2.28;;;5.10;99.90;;;;;;5071345;28;20564;-59
2024/01/05 04:27:57;;;;;;;7.55;3.05;;;5.10;99.90;;;;;;5070359;28;20229;-57
2024/01/05 04:30:24;;;;;;;4.85;2.60;;;5.10;99.90;;;;;;5070997;28;20293;-58
2024/01/05 04:32:51;;;;;;;4.78;2.30;;;5.00;99.90;;;;;;5071073;28;20229;-58
2024/01/05 04:35:18;;;;;;;3.55;2.10;;;5.00;99.90;;;;;;5074615;28;20204;-59
2024/01/05 04:37:45;;;;;;;4.78;2.65;;;5.00;99.90;;;;;;5075238;28;20762;-58
2024/01/05 04:40:13;;;;;;;3.30;2.63;;;5.00;99.90;;;;;;5075131;28;20201;-56
2024/01/05 04:42:41;;;;;;;2.92;2.63;;;5.00;99.90;;;;;;5075387;28;20198;-56
2024/01/05 04:45:10;;;;;;;5.97;3.08;;;5.00;99.90;;;;;;5075517;28;20201;-57
2024/01/05 04:47:37;;;;;;;4.88;2.75;;;5.00;99.90;;;;;;5074942;28;20787;-56
2024/01/05 04:50:04;;;;;;;4.00;2.85;;;5.00;99.90;;;;;;5075097;28;20206;-57
2024/01/05 04:52:34;;;;;;;5.75;3.30;;;5.00;99.90;;;;;;5075293;28;20676;-55
2024/01/05 04:55:00;;;;;;;4.47;2.47;;;5.00;99.90;;;;;;5075055;28;20210;-54
2024/01/05 04:57:27;;;;;;;4.88;2.40;;;5.00;99.90;;;;;;5074703;28;20236;-55
2024/01/05 04:59:55;;;;;;;5.10;4.00;;;5.00;99.90;;;;;;5074806;28;20206;-57
2024/01/05 05:02:23;;;;;;;6.18;3.03;;;5.00;99.90;;;;;;5075207;28;20301;-56
2024/01/05 05:04:49;;;;;;;4.28;3.30;;;5.00;99.90;;;;;;5074921;28;20288;-60
2024/01/05 05:07:16;;;;;;;5.10;2.40;;;5.00;99.90;;;;;;5074576;28;20571;-58
2024/01/05 05:09:43;;;;;;;5.40;3.00;;;5.00;99.90;;;;;;5074608;28;20198;-59
2024/01/05 05:12:10;;;;;;;2.40;2.30;;;5.00;99.90;;;;;;5074705;28;20206;-57
2024/01/05 05:14:37;;;;;;;5.22;2.42;;;5.00;99.90;;;;;;5074894;28;20205;-55
2024/01/05 05:17:05;;;;;;;2.80;2.70;;;4.90;99.90;;;;;;5074787;28;20225;-55
2024/01/05 05:19:32;;;;;;;9.20;2.60;;;5.00;99.90;;;;;;5074636;28;20579;-58
2024/01/05 05:21:59;;;;;;;5.97;2.40;;;5.00;99.90;;;;;;5074635;28;20206;-57
2024/01/05 05:24:26;;;;;;;4.20;2.90;;;4.90;99.90;;;;;;5074491;28;20205;-56
2024/01/05 05:26:52;;;;;;;2.10;1.98;;;4.90;99.90;;;;;;5074329;28;20244;-55
2024/01/05 05:29:19;;;;;;;4.20;3.58;;;4.90;99.90;;;;;;5074348;28;20209;-55
2024/01/05 05:31:46;;;;;;;4.18;2.40;;;4.90;99.90;;;;;;5074530;28;20216;-57
2024/01/05 05:34:14;;;;;;;3.05;2.70;;;4.90;99.90;;;;;;5074634;28;20212;-56
2024/01/05 05:36:41;;;;;;;9.23;2.65;;;4.90;99.90;;;;;;5074182;28;20599;-54
2024/01/05 05:39:09;;;;;;;4.88;2.50;;;4.90;99.90;;;;;;5073782;28;20201;-57
2024/01/05 05:41:36;;;;;;;4.03;3.25;;;4.90;99.90;;;;;;5074206;28;20749;-54
2024/01/05 05:44:03;;;;;;;2.88;2.20;;;4.90;99.90;;;;;;5074181;28;20206;-55
2024/01/05 05:46:30;;;;;;;7.13;2.30;;;4.90;99.90;;;;;;5073650;28;20229;-57
2024/01/05 05:48:57;;;;;;;3.85;2.58;;;4.90;99.90;;;;;;5073930;28;20210;-53
2024/01/05 05:51:25;;;;;;;3.35;2.55;;;4.90;99.90;;;;;;5073893;28;20217;-56
2024/01/05 05:53:52;;;;;;;3.17;2.00;;;4.90;99.90;;;;;;5074289;28;20202;-56
2024/01/05 05:56:19;;;;;;;3.50;2.92;;;4.90;99.90;;;;;;5073891;28;20707;-56
2024/01/05 05:58:46;;;;;;;5.22;2.30;;;4.90;99.90;;;;;;5073973;28;20212;-57
2024/01/05 06:01:13;;;;;;;2.42;2.25;;;4.90;99.90;;;;;;5073970;28;20591;-54
2024/01/05 06:03:40;;;;;;;2.33;2.10;;;4.90;99.90;;;;;;5074021;28;20212;-57
2024/01/05 06:06:16;;;;;;;5.93;2.78;;;5.00;99.90;;;;;;5073513;28;20221;-54
2024/01/05 06:08:45;;;;;;;6.53;2.17;;;5.00;99.90;;;;;;5073627;28;20201;-55
2024/01/05 06:11:13;;;;;;;3.33;2.47;;;5.00;99.90;;;;;;5073887;28;20214;-58
2024/01/05 06:13:40;;;;;;;5.72;2.92;;;5.00;99.90;;;;;;5073586;28;20306;-57
2024/01/05 06:16:07;;;;;;;4.22;2.33;;;5.00;99.90;;;;;;5073655;28;20225;-52
2024/01/05 06:18:34;;;;;;;4.38;2.80;;;5.10;99.90;;;;;;5073375;28;20212;-56
2024/01/05 06:21:01;;;;;;;4.63;2.63;;;5.10;99.90;;;;;;5073429;28;20211;-56
2024/01/05 06:23:28;;;;;;;5.32;2.90;;;5.10;99.90;;;;;;5073646;28;20733;-54
2024/01/05 06:25:56;;;;;;;3.88;2.60;;;5.10;99.90;;;;;;5073397;28;20232;-55
2024/01/05 06:28:23;;;;;;;4.45;2.60;;;5.10;99.90;;;;;;5073299;28;20229;-53
2024/01/05 06:30:50;;;;;;;6.07;3.88;;;5.10;99.90;;;;;;5073104;28;20216;-57
2024/01/05 06:33:17;;;;;;;2.35;1.95;;;5.10;99.90;;;;;;5073139;28;20205;-53
2024/01/05 06:35:44;;;;;;;5.47;3.15;;;5.10;99.90;;;;;;5073243;28;20301;-55
2024/01/05 06:38:11;;;;;;;4.00;2.60;;;5.10;99.90;;;;;;5073183;28;20292;-57
2024/01/05 06:40:37;;;;;;;4.15;2.80;;;5.10;99.90;;;;;;5072995;28;20201;-51
2024/01/05 06:43:06;;;;;;;2.35;2.15;;;5.10;99.90;;;;;;5073044;28;20220;-56
2024/01/05 06:45:33;;;;;;;5.32;2.85;;;5.10;99.90;;;;;;5072788;28;20652;-56
2024/01/05 06:47:59;;;;;;;2.45;2.25;;;5.10;99.90;;;;;;5072766;28;20607;-56
2024/01/05 06:50:27;;;;;;;2.95;2.22;;;5.10;99.90;;;;;;5065365;28;20205;-56
2024/01/05 06:52:54;;;;;;;3.03;2.00;;;5.10;99.90;;;;;;5072953;28;20259;-55
2024/01/05 06:55:21;;;;;;;4.70;2.75;;;5.10;99.90;;;;;;5072725;28;20698;-55
2024/01/05 06:57:48;;;;;;;9.63;3.20;;;5.10;99.90;;;;;;5071782;28;20235;-53
2024/01/05 07:00:17;;;;;;;7.03;2.70;;;5.10;99.90;;;;;;5072632;28;20213;-56
2024/01/05 07:02:44;;;;;;;2.00;1.90;;;5.10;99.90;;;;;;5072626;28;20208;-54
2024/01/05 07:05:11;;;;;;;4.05;2.97;;;5.20;99.90;;;;;;5072486;28;20241;-56
2024/01/05 07:07:39;;;;;;;5.22;2.15;;;5.10;99.90;;;;;;5072523;28;20229;-55
2024/01/05 07:10:07;;;;;;;2.85;2.45;;;5.10;99.90;;;;;;5072479;28;20209;-56
2024/01/05 07:12:34;;;;;;;4.25;2.60;;;5.10;99.90;;;;;;5072549;28;20209;-57
2024/01/05 07:15:02;;;;;;;3.40;2.80;;;5.20;99.90;;;;;;5072312;28;20892;-56
2024/01/05 07:17:30;;;;;;;3.53;2.65;;;5.20;99.90;;;;;;5072461;28;20703;-56
2024/01/05 07:19:57;;;;;;;3.67;3.35;;;5.20;99.90;;;;;;5072152;28;20300;-54
2024/01/05 07:22:25;;;;;;;2.28;2.08;;;5.20;99.90;;;;;;5072269;28;20675;-54
2024/01/05 07:24:51;;;;;;;5.57;2.13;;;5.20;99.90;;;;;;5072115;28;20212;-56
2024/01/05 07:27:17;;;;;;;4.32;2.67;;;5.20;99.90;;;;;;5071862;28;20233;-55
2024/01/05 07:29:44;;;;;;;6.43;2.33;;;5.30;99.90;;;;;;5072189;28;20763;-56
2024/01/05 07:32:11;;;;;;;10.07;3.10;;;5.30;99.90;;;;;;5071405;28;20527;-57
2024/01/05 07:34:39;;;;;;;5.88;5.28;;;5.30;99.90;;;;;;5070879;28;20202;-56
2024/01/05 07:37:06;;;;;;;3.60;2.50;;;5.30;99.90;;;;;;5071865;28;20363;-55
2024/01/05 07:39:33;;;;;;;7.78;2.50;;;5.30;99.90;;;;;;5071489;28;20202;-56
2024/01/05 07:42:02;;;;;;;3.08;2.55;;;5.30;99.90;;;;;;5071882;28;20206;-57
2024/01/05 07:44:28;;;;;;;4.53;2.80;;;5.40;99.90;;;;;;5072023;28;20584;-57
2024/01/05 07:46:55;;;;;;;4.55;2.85;;;5.40;99.90;;;;;;5071686;28;20253;-55
2024/01/05 07:49:23;;;;;;;2.60;2.40;;;5.40;99.90;;;;;;5071909;28;20292;-55
2024/01/05 07:51:51;;;;;;;6.18;3.17;;;5.40;99.90;;;;;;5071701;28;20296;-57
2024/01/05 07:54:18;;;;;;;2.92;2.70;;;5.40;99.90;;;;;;5071836;28;20215;-54
2024/01/05 07:56:45;;;;;;;3.78;2.53;;;5.40;99.90;;;;;;5071587;28;20419;-56
2024/01/05 07:59:12;;;;;;;4.70;3.17;;;5.40;99.90;;;;;;5071725;28;20198;-55
2024/01/05 08:01:39;;;;;;;3.10;2.90;;;5.40;99.90;;;;;;5071970;28;20292;-56
2024/01/05 08:04:07;;;;;;;6.65;3.80;;;5.50;99.90;;;;;;5071442;28;20304;-57
2024/01/05 08:06:34;;;;;;;4.72;4.15;;;5.50;99.90;;;;;;5071600;28;20229;-56
2024/01/05 08:09:03;;;;;;;7.80;4.75;;;5.50;99.90;;;;;;5071139;28;20232;-53
2024/01/05 08:11:28;;;;;;;4.13;3.72;;;5.50;99.90;;;;;;5071776;28;20239;-53
2024/01/05 08:13:55;;;;;;;4.13;3.57;;;5.60;99.90;;;;;;5071808;28;20698;-55
2024/01/05 08:16:22;;;;;;;4.32;2.60;;;5.60;99.90;;;;;;5071652;28;20225;-57
2024/01/05 08:18:49;;;;;;;4.72;2.58;;;5.60;99.90;;;;;;5071578;28;20229;-56
2024/01/05 08:21:16;;;;;;;4.78;4.20;;;5.60;99.90;;;;;;5071500;28;20233;-57
2024/01/05 08:23:43;;;;;;;6.55;4.40;;;5.60;99.90;;;;;;5071343;28;20208;-56
2024/01/05 08:26:11;;;;;;;3.95;3.60;;;5.70;99.90;;;;;;5071375;28;20232;-56
2024/01/05 08:28:37;;;;;;;6.03;5.20;;;5.70;99.90;;;;;;5071505;28;20236;-57
2024/01/05 08:31:05;;;;;;;6.80;6.20;;;5.70;99.90;;;;;;5071439;28;20216;-58
2024/01/05 08:33:32;;;;;;;7.45;5.75;;;5.80;99.90;;;;;;5071395;28;20233;-55
2024/01/05 08:35:59;;;;;;;5.25;4.95;;;5.80;99.90;;;;;;5071277;28;20226;-56
2024/01/05 08:38:26;;;;;;;8.32;5.97;;;5.90;99.90;;;;;;5071168;28;20216;-57
2024/01/05 08:40:53;;;;;;;8.32;5.95;;;5.90;99.90;;;;;;5071295;28;20212;-57
2024/01/05 08:43:21;;;;;;;9.05;6.53;;;6.00;99.90;;;;;;5071447;28;20584;-56
2024/01/05 08:45:48;;;;;;;7.85;7.18;;;6.00;99.90;;;;;;5071237;28;20228;-58
2024/01/05 08:48:15;;;;;;;8.02;7.32;;;6.10;99.90;;;;;;5071274;28;20225;-58
2024/01/05 08:50:42;;;;;;;7.97;7.28;;;6.10;99.90;;;;;;5070324;28;20228;-56
2024/01/05 08:53:09;;;;;;;8.85;7.72;;;6.10;99.90;;;;;;5071365;28;20293;-57
2024/01/05 08:55:36;;;;;;;8.35;5.97;;;6.20;99.90;;;;;;5063449;28;20677;-57
2024/01/05 08:58:04;;;;;;;7.75;7.15;;;6.20;99.90;;;;;;5068089;28;20255;-57
2024/01/05 09:00:32;;;;;;;6.07;5.47;;;6.30;99.90;;;;;;5070856;28;20217;-57
2024/01/05 09:02:59;;;;;;;6.80;6.10;;;6.30;99.90;;;;;;5070502;28;20212;-58
2024/01/05 09:05:26;;;;;;;6.50;5.78;;;6.30;99.90;;;;;;5067309;28;20208;-59
2024/01/05 09:07:53;;;;;;;10.48;7.40;;;6.40;99.90;;;;;;5063902;28;20602;-61
2024/01/05 09:10:20;;;;;;;5.25;4.53;;;6.50;99.90;;;;;;5056764;28;20672;-61
2024/01/05 09:12:46;;;;;;;11.38;6.13;;;6.50;99.90;;;;;;5064010;28;20305;-60
2024/01/05 09:15:15;;;;;;;13.98;6.82;;;6.50;99.90;;;;;;5064567;28;20210;-59
2024/01/05 09:17:44;;;;;;;8.45;7.75;;;6.60;99.90;;;;;;5064915;28;20221;-61
2024/01/05 09:20:12;;;;;;;6.20;5.60;;;6.70;99.90;;;;;;5071800;28;20212;-60
2024/01/05 09:22:38;;;;;;;6.68;6.13;;;6.70;99.90;;;;;;5068682;28;20206;-57
2024/01/05 09:25:07;;;;;;;9.05;5.60;;;6.80;99.90;;;;;;5074207;28;20256;-60
2024/01/05 09:27:34;;;;;;;13.52;6.28;;;6.80;99.90;;;;;;5071995;28;20222;-57
2024/01/05 09:30:03;;;;;;;8.75;6.43;;;6.90;99.90;;;;;;5067624;28;20202;-58
2024/01/05 09:32:30;;;;;;;9.90;7.07;;;6.90;99.90;;;;;;5073006;28;20198;-60
2024/01/05 09:34:58;;;;;;;8.77;7.07;;;7.00;99.90;;;;;;5074062;28;20202;-55
2024/01/05 09:37:24;;;;;;;7.40;6.22;;;7.10;99.90;;;;;;5071018;28;20779;-61
2024/01/05 09:39:52;;;;;;;9.00;7.15;;;7.20;99.90;;;;;;5074018;28;20212;-60
2024/01/05 09:42:19;;;;;;;11.68;6.30;;;7.30;99.90;;;;;;5073449;28;20638;-60
2024/01/05 09:44:46;;;;;;;8.25;6.20;;;7.40;99.90;;;;;;5073137;28;20284;-60
2024/01/05 09:47:14;;;;;;;6.38;5.78;;;7.40;99.90;;;;;;5072653;28;20683;-58
2024/01/05 09:49:44;;;;;;;6.00;5.50;;;7.50;99.90;;;;;;5073152;28;20672;-59
2024/01/05 09:52:14;;;;;;;7.32;5.53;;;7.60;99.90;;;;;;5073990;28;20236;-59
2024/01/05 09:54:41;;;;;;;7.97;5.10;;;7.70;99.90;;;;;;5073369;28;22235;-57
2024/01/05 09:57:10;;;;;;;7.70;5.32;;;7.80;99.90;;;;;;5073629;28;20233;-55
2024/01/05 09:59:38;;;;;;;10.32;4.43;;;7.80;99.90;;;;;;5071115;28;20208;-58
2024/01/05 10:02:11;;;;;;;5.72;3.80;;;7.90;99.90;;;;;;5073530;28;20293;-58
2024/01/05 10:04:38;;;;;;;3.50;3.20;;;7.90;99.90;;;;;;5073292;28;20205;-56
2024/01/05 10:07:05;;;;;;;6.72;4.32;;;8.00;99.90;;;;;;5071745;28;20328;-58
2024/01/05 10:09:48;;;;;;;4.75;2.75;;;8.10;99.90;;;;;;5072741;28;20249;-58
2024/01/05 10:12:17;;;;;;;3.15;2.60;;;8.10;99.90;;;;;;5072908;28;20213;-58
2024/01/05 10:14:46;;;;;;;4.28;3.28;;;8.20;99.90;;;;;;5072972;28;20625;-56
2024/01/05 10:17:13;;;;;;;5.47;2.70;;;8.30;99.90;;;;;;5073272;28;20236;-56
2024/01/05 10:19:41;;;;;;;2.88;2.30;;;8.40;99.90;;;;;;5072910;28;20198;-59
2024/01/05 10:22:12;;;;;;;5.95;3.08;;;8.50;99.90;;;;;;5072950;28;20259;-54
2024/01/05 10:24:41;;;;;;;3.35;2.83;;;8.50;99.90;;;;;;5072420;28;20216;-56
2024/01/05 10:27:09;;;;;;;3.40;3.10;;;8.60;99.90;;;;;;5073229;28;20237;-58
2024/01/05 10:29:37;;;;;;;2.90;2.65;;;8.70;99.90;;;;;;5073044;28;20226;-55
2024/01/05 10:32:12;;;;;;;5.30;3.60;;;8.70;99.90;;;;;;5072119;28;20213;-59
2024/01/05 10:34:40;;;;;;;5.50;3.83;;;8.80;99.90;;;;;;5073261;28;20232;-58
2024/01/05 10:37:07;;;;;;;7.88;3.40;;;8.80;99.90;;;;;;5072831;28;20558;-56
2024/01/05 10:39:35;;;;;;;3.20;2.95;;;8.90;99.90;;;;;;5073195;28;20285;-58
2024/01/05 10:42:21;;;;;;;3.40;2.65;;;8.90;99.90;;;;;;5073335;28;20216;-54
2024/01/05 10:44:51;;;;;;;3.07;1.80;;;9.00;99.90;;;;;;5072360;28;20202;-57
2024/01/05 10:47:19;;;;;;;4.87;2.03;;;9.00;99.90;;;;;;5072771;28;20842;-58
2024/01/05 10:49:48;;;;;;;4.37;2.43;;;9.00;99.90;;;;;;5072901;28;20928;-59
2024/01/05 10:52:16;;;;;;;2.70;2.50;;;9.00;99.90;;;;;;5073085;28;20451;-58
2024/01/05 10:54:44;;;;;;;4.47;2.92;;;8.90;99.90;;;;;;5072465;28;20301;-58
2024/01/05 10:57:14;;;;;;;4.68;1.90;;;8.90;99.90;;;;;;5072367;28;20261;-57
2024/01/05 10:59:44;;;;;;;5.83;2.57;;;9.00;99.90;;;;;;5072571;28;20279;-57
2024/01/05 11:02:19;;;;;;;13.13;2.73;;;8.90;99.90;;;;;;5072693;28;20942;-57
2024/01/05 11:04:48;;;;;;;6.60;2.33;;;9.00;99.90;;;;;;5072617;28;20451;-57
2024/01/05 11:07:16;;;;;;;4.90;4.45;;;9.00;99.90;;;;;;5072597;28;21111;-59
2024/01/05 11:09:54;;;;;;;5.00;4.70;;;8.90;99.90;;;;;;5072340;28;20316;-58
2024/01/05 11:12:36;;;;;;;1.87;1.77;;;9.00;99.90;;;;;;5072342;28;20454;-59
2024/01/05 11:15:22;;;;;;;4.40;2.13;;;9.10;99.90;;;;;;5072416;28;20444;-59
2024/01/05 11:18:12;;;;;;;3.05;1.55;;;9.10;99.90;;;;;;5071411;28;20562;-60
2024/01/05 11:20:51;;;;;;;1.50;1.40;;;9.10;99.90;;;;;;5069380;28;20198;-54
2024/01/05 11:23:20;;;;;;;4.53;3.10;;;9.10;99.90;;;;;;5071773;28;20451;-61
2024/01/05 11:25:48;;;;;;;3.53;3.23;;;9.20;99.90;;;;;;5072028;28;20531;-60
2024/01/05 11:28:33;;;;;;;4.40;2.53;;;9.30;99.90;;;;;;5069103;28;20502;-59
2024/01/05 11:31:02;;;;;;;2.08;1.98;;;9.30;99.90;;;;;;5070276;28;20436;-57
2024/01/05 11:33:45;;;;;;;4.57;2.17;;;9.40;99.90;;;;;;5068581;28;20201;-57
2024/01/05 11:36:12;;;;;;;3.43;1.80;;;9.50;99.90;;;;;;5070139;28;21025;-56
2024/01/05 11:38:43;;;;;;;2.00;1.83;;;9.50;99.90;;;;;;5071001;28;20549;-59
2024/01/05 11:41:18;;;;;;;5.50;2.20;;;9.50;99.90;;;;;;5071134;28;20811;-55
2024/01/05 11:43:44;;;;;;;4.13;1.73;;;9.60;99.90;;;;;;5070519;28;20444;-59
2024/01/05 11:46:13;;;;;;;5.67;1.90;;;9.70;99.90;;;;;;5071363;28;20474;-59
2024/01/05 11:48:51;;;;;;;2.60;1.80;;;9.60;99.90;;;;;;5070443;28;20529;-60
2024/01/05 11:51:18;;;;;;;2.03;1.60;;;9.70;99.90;;;;;;5070110;28;20946;-58
2024/01/05 11:53:48;;;;;;;2.10;1.73;;;9.60;99.90;;;;;;5070751;28;20444;-58
2024/01/05 11:56:25;;;;;;;4.23;1.93;;;9.60;99.90;;;;;;5060754;28;20492;-59
2024/01/05 11:58:51;;;;;;;1.90;1.45;;;9.50;99.90;;;;;;5058978;28;20961;-58
2024/01/05 12:01:20;;;;;;;4.30;2.00;;;9.60;99.90;;;;;;5070606;28;20224;-58
2024/01/05 12:03:47;;;;;;;4.30;2.27;;;9.60;99.90;;;;;;5070433;28;20902;-57
2024/01/05 12:06:14;;;;;;;3.73;1.77;;;9.60;99.90;;;;;;5069551;28;20469;-59
2024/01/05 12:08:41;;;;;;;4.82;1.92;;;9.70;99.90;;;;;;5069599;28;22025;-60
2024/01/05 12:11:11;;;;;;;5.57;1.40;;;9.60;99.90;;;;;;5069613;28;20292;-58
2024/01/05 12:13:38;;;;;;;3.07;2.10;;;9.60;99.90;;;;;;5064680;28;20506;-58
2024/01/05 12:16:06;;;;;;;4.40;2.20;;;9.60;99.90;;;;;;5067541;28;20521;-58
2024/01/05 12:18:42;;;;;;;5.73;1.80;;;9.60;99.90;;;;;;5070743;28;21034;-57
2024/01/05 12:21:12;;;;;;;3.43;2.00;;;9.70;99.90;;;;;;5069583;28;20472;-58
2024/01/05 12:23:39;;;;;;;1.97;1.70;;;9.70;99.90;;;;;;5070407;28;20543;-57
2024/01/05 12:26:08;;;;;;;2.40;1.63;;;9.70;99.90;;;;;;5069926;28;20908;-59
2024/01/05 12:28:36;;;;;;;2.47;1.83;;;9.80;99.90;;;;;;5059189;28;20819;-58
2024/01/05 12:31:05;;;;;;;1.57;1.47;;;9.80;99.90;;;;;;5070206;28;20544;-59
2024/01/05 12:33:35;;;;;;;4.00;2.10;;;9.80;99.90;;;;;;5071808;28;20448;-57
2024/01/05 12:36:03;;;;;;;3.70;3.33;;;9.70;99.90;;;;;;5070653;28;20308;-58
2024/01/05 12:38:30;;;;;;;1.83;1.50;;;9.70;99.90;;;;;;5070524;28;20596;-59
2024/01/05 12:41:08;;;;;;;1.53;1.43;;;9.70;99.90;;;;;;5070405;28;20447;-58
2024/01/05 12:43:36;;;;;;;2.83;1.90;;;9.70;99.90;;;;;;5070830;28;20485;-59
2024/01/05 12:46:04;;;;;;;2.47;2.17;;;9.80;99.90;;;;;;5069584;28;20464;-59
2024/01/05 12:48:31;;;;;;;3.60;2.67;;;9.80;99.90;;;;;;5070443;28;20448;-58
2024/01/05 12:51:07;;;;;;;3.38;1.40;;;9.70;99.90;;;;;;5070106;28;20539;-59
2024/01/05 12:53:34;;;;;;;1.90;1.50;;;9.70;99.90;;;;;;5063909;28;20280;-58
2024/01/05 12:56:12;;;;;;;2.90;2.40;;;9.80;99.90;;;;;;5072416;28;20517;-58
2024/01/05 12:58:40;;;;;;;5.47;2.30;;;9.80;99.90;;;;;;5080593;22;20503;-64
2024/01/05 13:01:14;;;;;;;3.03;1.85;;;9.90;99.90;;;;;;5056184;28;20890;-63